sensor_id;sensor_type;location;lat;lon;timestamp;temperature;humidity
55004;DHT22;40900;52.710;6.438;2022-12-19T00:01:12;0.20;99.90
55004;DHT22;40900;52.710;6.438;2022-12-19T00:03:45;0.20;99.90
55004;DHT22;40900;52.710;6.438;2022-12-19T00:06:12;0.20;99.90
55004;DHT22;40900;52.710;6.438;2022-12-19T00:08:45;0.20;99.90
55004;DHT22;40900;52.710;6.438;2022-12-19T00:11:12;0.20;99.90
55004;DHT22;40900;52.710;6.438;2022-12-19T00:13:39;0.30;99.90
55004;DHT22;40900;52.710;6.438;2022-12-19T00:16:09;0.20;99.90
55004;DHT22;40900;52.710;6.438;2022-12-19T00:18:35;0.20;99.90
55004;DHT22;40900;52.710;6.438;2022-12-19T00:21:03;0.50;99.90
55004;DHT22;40900;52.710;6.438;2022-12-19T00:23:31;0.30;99.90
55004;DHT22;40900;52.710;6.438;2022-12-19T00:26:11;0.30;99.90
55004;DHT22;40900;52.710;6.438;2022-12-19T00:28:37;0.40;99.90
55004;DHT22;40900;52.710;6.438;2022-12-19T00:31:03;0.30;99.90
55004;DHT22;40900;52.710;6.438;2022-12-19T00:33:29;0.40;99.90
55004;DHT22;40900;52.710;6.438;2022-12-19T00:36:06;0.40;99.90
55004;DHT22;40900;52.710;6.438;2022-12-19T00:38:32;0.40;99.90
55004;DHT22;40900;52.710;6.438;2022-12-19T00:41:12;0.40;99.90
55004;DHT22;40900;52.710;6.438;2022-12-19T00:43:38;0.40;99.90
55004;DHT22;40900;52.710;6.438;2022-12-19T00:46:06;0.40;99.90
55004;DHT22;40900;52.710;6.438;2022-12-19T00:48:32;0.40;99.90
55004;DHT22;40900;52.710;6.438;2022-12-19T00:51:12;0.50;99.90
55004;DHT22;40900;52.710;6.438;2022-12-19T00:53:38;0.50;99.90
55004;DHT22;40900;52.710;6.438;2022-12-19T00:56:07;0.50;99.90
55004;DHT22;40900;52.710;6.438;2022-12-19T00:58:33;0.50;99.90
55004;DHT22;40900;52.710;6.438;2022-12-19T01:01:05;0.60;99.90
55004;DHT22;40900;52.710;6.438;2022-12-19T01:03:31;0.60;99.90
55004;DHT22;40900;52.710;6.438;2022-12-19T01:05:57;0.60;99.90
55004;DHT22;40900;52.710;6.438;2022-12-19T01:08:22;0.60;99.90
55004;DHT22;40900;52.710;6.438;2022-12-19T01:10:49;0.60;99.90
55004;DHT22;40900;52.710;6.438;2022-12-19T01:13:17;0.60;99.90
55004;DHT22;40900;52.710;6.438;2022-12-19T01:15:43;0.60;99.90
55004;DHT22;40900;52.710;6.438;2022-12-19T01:18:09;0.60;99.90
55004;DHT22;40900;52.710;6.438;2022-12-19T01:20:39;0.60;99.90
55004;DHT22;40900;52.710;6.438;2022-12-19T01:23:09;0.60;99.90
55004;DHT22;40900;52.710;6.438;2022-12-19T01:25:36;0.70;99.90
55004;DHT22;40900;52.710;6.438;2022-12-19T01:28:04;0.70;99.90
55004;DHT22;40900;52.710;6.438;2022-12-19T01:30:30;0.70;99.90
55004;DHT22;40900;52.710;6.438;2022-12-19T01:32:57;0.70;99.90
55004;DHT22;40900;52.710;6.438;2022-12-19T01:35:23;0.70;99.90
55004;DHT22;40900;52.710;6.438;2022-12-19T01:37:51;0.70;99.90
55004;DHT22;40900;52.710;6.438;2022-12-19T01:40:18;0.80;99.90
55004;DHT22;40900;52.710;6.438;2022-12-19T01:42:44;0.80;99.90
55004;DHT22;40900;52.710;6.438;2022-12-19T01:45:18;0.80;99.90
55004;DHT22;40900;52.710;6.438;2022-12-19T01:47:50;0.80;99.90
55004;DHT22;40900;52.710;6.438;2022-12-19T01:50:35;0.80;99.90
55004;DHT22;40900;52.710;6.438;2022-12-19T01:53:02;0.90;99.90
55004;DHT22;40900;52.710;6.438;2022-12-19T01:55:30;0.90;99.90
55004;DHT22;40900;52.710;6.438;2022-12-19T01:57:56;0.90;99.90
55004;DHT22;40900;52.710;6.438;2022-12-19T02:00:25;0.90;99.90
55004;DHT22;40900;52.710;6.438;2022-12-19T02:02:55;0.90;99.90
55004;DHT22;40900;52.710;6.438;2022-12-19T02:05:23;0.90;99.90
55004;DHT22;40900;52.710;6.438;2022-12-19T02:07:50;0.90;99.90
55004;DHT22;40900;52.710;6.438;2022-12-19T02:10:16;0.90;99.90
55004;DHT22;40900;52.710;6.438;2022-12-19T02:12:44;0.90;99.90
55004;DHT22;40900;52.710;6.438;2022-12-19T02:15:10;0.90;99.90
55004;DHT22;40900;52.710;6.438;2022-12-19T02:17:43;0.80;99.90
55004;DHT22;40900;52.710;6.438;2022-12-19T02:29:01;0.80;99.90
55004;DHT22;40900;52.710;6.438;2022-12-19T02:32:03;0.80;99.90
55004;DHT22;40900;52.710;6.438;2022-12-19T02:34:35;0.80;99.90
55004;DHT22;40900;52.710;6.438;2022-12-19T02:37:22;0.80;99.90
55004;DHT22;40900;52.710;6.438;2022-12-19T02:40:05;0.90;99.90
55004;DHT22;40900;52.710;6.438;2022-12-19T02:42:34;0.90;99.90
55004;DHT22;40900;52.710;6.438;2022-12-19T02:45:03;0.90;99.90
55004;DHT22;40900;52.710;6.438;2022-12-19T02:47:31;0.90;99.90
55004;DHT22;40900;52.710;6.438;2022-12-19T02:49:57;1.00;99.90
55004;DHT22;40900;52.710;6.438;2022-12-19T02:54:50;1.00;99.90
55004;DHT22;40900;52.710;6.438;2022-12-19T03:00:00;1.00;99.90
55004;DHT22;40900;52.710;6.438;2022-12-19T03:08:09;1.00;99.90
55004;DHT22;40900;52.710;6.438;2022-12-19T03:13:33;1.10;99.90
55004;DHT22;40900;52.710;6.438;2022-12-19T03:16:00;1.20;99.90
55004;DHT22;40900;52.710;6.438;2022-12-19T03:18:27;1.20;99.90
55004;DHT22;40900;52.710;6.438;2022-12-19T03:21:47;1.20;99.90
55004;DHT22;40900;52.710;6.438;2022-12-19T03:24:07;1.20;99.90
55004;DHT22;40900;52.710;6.438;2022-12-19T03:26:37;1.20;99.90
55004;DHT22;40900;52.710;6.438;2022-12-19T03:29:12;1.20;99.90
55004;DHT22;40900;52.710;6.438;2022-12-19T03:31:40;1.20;99.90
55004;DHT22;40900;52.710;6.438;2022-12-19T03:36:42;1.30;99.90
55004;DHT22;40900;52.710;6.438;2022-12-19T03:39:11;1.40;99.90
55004;DHT22;40900;52.710;6.438;2022-12-19T03:41:38;1.30;99.90
55004;DHT22;40900;52.710;6.438;2022-12-19T03:44:27;1.40;99.90
55004;DHT22;40900;52.710;6.438;2022-12-19T03:47:01;1.50;99.90
55004;DHT22;40900;52.710;6.438;2022-12-19T03:49:30;1.50;99.90
55004;DHT22;40900;52.710;6.438;2022-12-19T03:52:00;1.50;99.90
55004;DHT22;40900;52.710;6.438;2022-12-19T03:54:38;1.50;99.90
55004;DHT22;40900;52.710;6.438;2022-12-19T03:58:03;1.50;99.90
55004;DHT22;40900;52.710;6.438;2022-12-19T04:00:35;1.50;99.90
55004;DHT22;40900;52.710;6.438;2022-12-19T04:03:02;1.60;99.90
55004;DHT22;40900;52.710;6.438;2022-12-19T04:05:28;1.50;99.90
55004;DHT22;40900;52.710;6.438;2022-12-19T04:08:04;1.60;99.90
55004;DHT22;40900;52.710;6.438;2022-12-19T04:10:35;1.60;99.90
55004;DHT22;40900;52.710;6.438;2022-12-19T04:13:12;1.70;99.90
55004;DHT22;40900;52.710;6.438;2022-12-19T04:15:49;1.70;99.90
55004;DHT22;40900;52.710;6.438;2022-12-19T04:18:18;1.70;99.90
55004;DHT22;40900;52.710;6.438;2022-12-19T04:21:01;1.80;99.90
55004;DHT22;40900;52.710;6.438;2022-12-19T04:23:32;1.80;99.90
55004;DHT22;40900;52.710;6.438;2022-12-19T04:26:01;1.80;99.90
55004;DHT22;40900;52.710;6.438;2022-12-19T04:28:47;1.80;99.90
55004;DHT22;40900;52.710;6.438;2022-12-19T04:31:15;1.90;99.90
55004;DHT22;40900;52.710;6.438;2022-12-19T04:33:41;1.90;99.90
55004;DHT22;40900;52.710;6.438;2022-12-19T04:36:08;1.80;99.90
55004;DHT22;40900;52.710;6.438;2022-12-19T04:38:34;1.90;99.90
55004;DHT22;40900;52.710;6.438;2022-12-19T04:41:00;2.00;99.90
55004;DHT22;40900;52.710;6.438;2022-12-19T04:43:26;2.00;99.90
55004;DHT22;40900;52.710;6.438;2022-12-19T04:45:51;2.00;99.90
55004;DHT22;40900;52.710;6.438;2022-12-19T04:48:17;2.10;99.90
55004;DHT22;40900;52.710;6.438;2022-12-19T04:50:43;2.10;99.90
55004;DHT22;40900;52.710;6.438;2022-12-19T04:53:09;2.10;99.90
55004;DHT22;40900;52.710;6.438;2022-12-19T04:55:34;2.20;99.90
55004;DHT22;40900;52.710;6.438;2022-12-19T04:58:00;2.40;99.90
55004;DHT22;40900;52.710;6.438;2022-12-19T05:00:27;2.30;99.90
55004;DHT22;40900;52.710;6.438;2022-12-19T05:02:53;2.30;99.90
55004;DHT22;40900;52.710;6.438;2022-12-19T05:05:19;2.30;99.90
55004;DHT22;40900;52.710;6.438;2022-12-19T05:07:44;2.40;99.90
55004;DHT22;40900;52.710;6.438;2022-12-19T05:10:11;2.40;99.90
55004;DHT22;40900;52.710;6.438;2022-12-19T05:12:37;2.40;99.90
55004;DHT22;40900;52.710;6.438;2022-12-19T05:15:03;3.10;99.90
55004;DHT22;40900;52.710;6.438;2022-12-19T05:17:29;2.50;99.90
55004;DHT22;40900;52.710;6.438;2022-12-19T05:19:54;2.60;99.90
55004;DHT22;40900;52.710;6.438;2022-12-19T05:22:20;2.70;99.90
55004;DHT22;40900;52.710;6.438;2022-12-19T05:24:45;2.70;99.90
55004;DHT22;40900;52.710;6.438;2022-12-19T05:27:11;2.70;99.90
55004;DHT22;40900;52.710;6.438;2022-12-19T05:29:37;2.80;99.90
55004;DHT22;40900;52.710;6.438;2022-12-19T05:32:02;2.70;99.90
55004;DHT22;40900;52.710;6.438;2022-12-19T05:34:28;2.80;99.90
55004;DHT22;40900;52.710;6.438;2022-12-19T05:36:54;2.80;99.90
55004;DHT22;40900;52.710;6.438;2022-12-19T05:39:19;2.80;99.90
55004;DHT22;40900;52.710;6.438;2022-12-19T05:41:45;2.90;99.90
55004;DHT22;40900;52.710;6.438;2022-12-19T05:44:11;2.90;99.90
55004;DHT22;40900;52.710;6.438;2022-12-19T05:46:36;2.90;99.90
55004;DHT22;40900;52.710;6.438;2022-12-19T05:49:02;2.90;99.90
55004;DHT22;40900;52.710;6.438;2022-12-19T05:51:28;3.00;99.90
55004;DHT22;40900;52.710;6.438;2022-12-19T05:53:53;3.00;99.90
55004;DHT22;40900;52.710;6.438;2022-12-19T05:56:21;3.00;99.90
55004;DHT22;40900;52.710;6.438;2022-12-19T05:58:48;3.00;99.90
55004;DHT22;40900;52.710;6.438;2022-12-19T06:01:20;3.10;99.90
55004;DHT22;40900;52.710;6.438;2022-12-19T06:03:47;3.10;99.90
55004;DHT22;40900;52.710;6.438;2022-12-19T06:06:15;3.20;99.90
55004;DHT22;40900;52.710;6.438;2022-12-19T06:08:41;3.10;99.90
55004;DHT22;40900;52.710;6.438;2022-12-19T06:11:08;3.20;99.90
55004;DHT22;40900;52.710;6.438;2022-12-19T06:13:35;3.20;99.90
55004;DHT22;40900;52.710;6.438;2022-12-19T06:16:08;3.20;99.90
55004;DHT22;40900;52.710;6.438;2022-12-19T06:18:34;3.20;99.90
55004;DHT22;40900;52.710;6.438;2022-12-19T06:21:03;3.30;99.90
55004;DHT22;40900;52.710;6.438;2022-12-19T06:23:30;3.30;99.90
55004;DHT22;40900;52.710;6.438;2022-12-19T06:25:57;3.30;99.90
55004;DHT22;40900;52.710;6.438;2022-12-19T06:28:23;3.30;99.90
55004;DHT22;40900;52.710;6.438;2022-12-19T06:30:49;3.30;99.90
55004;DHT22;40900;52.710;6.438;2022-12-19T06:33:15;3.40;99.90
55004;DHT22;40900;52.710;6.438;2022-12-19T06:35:41;3.40;99.90
55004;DHT22;40900;52.710;6.438;2022-12-19T06:38:06;3.40;99.90
55004;DHT22;40900;52.710;6.438;2022-12-19T06:40:32;3.40;99.90
55004;DHT22;40900;52.710;6.438;2022-12-19T06:43:36;3.40;99.90
55004;DHT22;40900;52.710;6.438;2022-12-19T06:46:02;3.40;99.90
55004;DHT22;40900;52.710;6.438;2022-12-19T06:48:27;3.50;99.90
55004;DHT22;40900;52.710;6.438;2022-12-19T06:50:53;3.50;99.90
55004;DHT22;40900;52.710;6.438;2022-12-19T06:53:19;3.50;99.90
55004;DHT22;40900;52.710;6.438;2022-12-19T06:55:45;3.60;99.90
55004;DHT22;40900;52.710;6.438;2022-12-19T06:58:11;3.50;99.90
55004;DHT22;40900;52.710;6.438;2022-12-19T07:00:37;3.50;99.90
55004;DHT22;40900;52.710;6.438;2022-12-19T07:03:04;3.60;99.90
55004;DHT22;40900;52.710;6.438;2022-12-19T07:05:32;3.60;99.90
55004;DHT22;40900;52.710;6.438;2022-12-19T07:07:58;3.60;99.90
55004;DHT22;40900;52.710;6.438;2022-12-19T07:10:23;3.70;99.90
55004;DHT22;40900;52.710;6.438;2022-12-19T07:12:50;3.80;99.90
55004;DHT22;40900;52.710;6.438;2022-12-19T07:15:16;3.70;99.90
55004;DHT22;40900;52.710;6.438;2022-12-19T07:17:42;3.70;99.90
55004;DHT22;40900;52.710;6.438;2022-12-19T07:20:08;3.70;99.90
55004;DHT22;40900;52.710;6.438;2022-12-19T07:22:35;3.70;99.90
55004;DHT22;40900;52.710;6.438;2022-12-19T07:25:02;3.70;99.90
55004;DHT22;40900;52.710;6.438;2022-12-19T07:27:28;3.80;99.90
55004;DHT22;40900;52.710;6.438;2022-12-19T07:29:54;3.90;99.90
55004;DHT22;40900;52.710;6.438;2022-12-19T07:32:20;3.80;99.90
55004;DHT22;40900;52.710;6.438;2022-12-19T07:34:46;3.80;99.90
55004;DHT22;40900;52.710;6.438;2022-12-19T07:37:12;3.80;99.90
55004;DHT22;40900;52.710;6.438;2022-12-19T07:39:37;3.90;99.90
55004;DHT22;40900;52.710;6.438;2022-12-19T07:42:03;4.00;99.90
55004;DHT22;40900;52.710;6.438;2022-12-19T07:44:29;4.00;99.90
55004;DHT22;40900;52.710;6.438;2022-12-19T07:46:55;4.10;99.90
55004;DHT22;40900;52.710;6.438;2022-12-19T07:49:21;4.10;99.90
55004;DHT22;40900;52.710;6.438;2022-12-19T07:51:47;4.20;99.90
55004;DHT22;40900;52.710;6.438;2022-12-19T07:54:13;4.20;99.90
55004;DHT22;40900;52.710;6.438;2022-12-19T07:56:39;4.20;99.90
55004;DHT22;40900;52.710;6.438;2022-12-19T07:59:04;4.20;99.90
55004;DHT22;40900;52.710;6.438;2022-12-19T08:01:30;4.30;99.90
55004;DHT22;40900;52.710;6.438;2022-12-19T08:03:56;4.30;99.90
55004;DHT22;40900;52.710;6.438;2022-12-19T08:06:21;4.30;99.90
55004;DHT22;40900;52.710;6.438;2022-12-19T08:08:48;4.40;99.90
55004;DHT22;40900;52.710;6.438;2022-12-19T08:11:16;4.40;99.90
55004;DHT22;40900;52.710;6.438;2022-12-19T08:13:43;4.40;99.90
55004;DHT22;40900;52.710;6.438;2022-12-19T08:16:09;4.40;99.90
55004;DHT22;40900;52.710;6.438;2022-12-19T08:18:35;4.50;99.90
55004;DHT22;40900;52.710;6.438;2022-12-19T08:21:00;4.60;99.90
55004;DHT22;40900;52.710;6.438;2022-12-19T08:23:26;4.60;99.90
55004;DHT22;40900;52.710;6.438;2022-12-19T08:26:07;4.70;99.90
55004;DHT22;40900;52.710;6.438;2022-12-19T08:28:33;4.60;99.90
55004;DHT22;40900;52.710;6.438;2022-12-19T08:31:09;4.70;99.90
55004;DHT22;40900;52.710;6.438;2022-12-19T08:33:35;4.70;99.90
55004;DHT22;40900;52.710;6.438;2022-12-19T08:36:09;4.80;99.90
55004;DHT22;40900;52.710;6.438;2022-12-19T08:38:36;4.80;99.90
55004;DHT22;40900;52.710;6.438;2022-12-19T08:41:04;4.90;99.90
55004;DHT22;40900;52.710;6.438;2022-12-19T08:43:30;4.90;99.90
55004;DHT22;40900;52.710;6.438;2022-12-19T08:45:57;5.00;99.90
55004;DHT22;40900;52.710;6.438;2022-12-19T08:48:23;5.10;99.90
55004;DHT22;40900;52.710;6.438;2022-12-19T08:50:54;5.10;99.90
55004;DHT22;40900;52.710;6.438;2022-12-19T08:53:21;5.20;99.90
55004;DHT22;40900;52.710;6.438;2022-12-19T08:55:47;5.20;99.90
55004;DHT22;40900;52.710;6.438;2022-12-19T08:58:19;5.20;99.90
55004;DHT22;40900;52.710;6.438;2022-12-19T09:00:45;5.20;99.90
55004;DHT22;40900;52.710;6.438;2022-12-19T09:03:11;5.30;99.90
55004;DHT22;40900;52.710;6.438;2022-12-19T09:05:37;5.30;99.90
55004;DHT22;40900;52.710;6.438;2022-12-19T09:08:03;5.40;99.90
55004;DHT22;40900;52.710;6.438;2022-12-19T09:10:29;5.40;99.90
55004;DHT22;40900;52.710;6.438;2022-12-19T09:12:56;5.40;99.90
55004;DHT22;40900;52.710;6.438;2022-12-19T09:15:22;5.50;99.90
55004;DHT22;40900;52.710;6.438;2022-12-19T09:17:48;5.50;99.90
55004;DHT22;40900;52.710;6.438;2022-12-19T09:20:13;5.70;99.90
55004;DHT22;40900;52.710;6.438;2022-12-19T09:22:39;5.70;99.90
55004;DHT22;40900;52.710;6.438;2022-12-19T09:25:05;5.80;99.90
55004;DHT22;40900;52.710;6.438;2022-12-19T09:27:31;5.80;99.90
55004;DHT22;40900;52.710;6.438;2022-12-19T09:29:57;5.80;99.90
55004;DHT22;40900;52.710;6.438;2022-12-19T09:32:23;5.90;99.90
55004;DHT22;40900;52.710;6.438;2022-12-19T09:34:48;5.90;99.90
55004;DHT22;40900;52.710;6.438;2022-12-19T09:37:14;5.80;99.90
55004;DHT22;40900;52.710;6.438;2022-12-19T09:39:40;5.90;99.90
55004;DHT22;40900;52.710;6.438;2022-12-19T09:45:23;6.00;99.90
55004;DHT22;40900;52.710;6.438;2022-12-19T09:47:55;6.00;99.90
55004;DHT22;40900;52.710;6.438;2022-12-19T09:50:45;5.90;99.90
55004;DHT22;40900;52.710;6.438;2022-12-19T09:53:21;5.90;99.90
55004;DHT22;40900;52.710;6.438;2022-12-19T09:55:48;6.00;99.90
55004;DHT22;40900;52.710;6.438;2022-12-19T09:58:20;6.10;99.90
55004;DHT22;40900;52.710;6.438;2022-12-19T10:00:54;6.10;99.90
55004;DHT22;40900;52.710;6.438;2022-12-19T10:08:36;6.20;99.90
55004;DHT22;40900;52.710;6.438;2022-12-19T10:13:51;6.30;99.90
55004;DHT22;40900;52.710;6.438;2022-12-19T10:19:19;6.30;99.90
55004;DHT22;40900;52.710;6.438;2022-12-19T10:25:06;6.40;99.90
55004;DHT22;40900;52.710;6.438;2022-12-19T10:28:13;6.40;99.90
55004;DHT22;40900;52.710;6.438;2022-12-19T10:31:08;6.50;99.90
55004;DHT22;40900;52.710;6.438;2022-12-19T10:36:10;6.60;99.90
55004;DHT22;40900;52.710;6.438;2022-12-19T10:41:26;6.60;99.90
55004;DHT22;40900;52.710;6.438;2022-12-19T10:44:08;6.70;99.90
55004;DHT22;40900;52.710;6.438;2022-12-19T10:46:41;6.70;99.90
55004;DHT22;40900;52.710;6.438;2022-12-19T10:51:39;6.70;99.90
55004;DHT22;40900;52.710;6.438;2022-12-19T10:54:05;6.80;99.90
55004;DHT22;40900;52.710;6.438;2022-12-19T10:56:31;6.80;99.90
55004;DHT22;40900;52.710;6.438;2022-12-19T10:58:58;6.80;99.90
55004;DHT22;40900;52.710;6.438;2022-12-19T11:01:24;6.80;99.90
55004;DHT22;40900;52.710;6.438;2022-12-19T11:04:10;6.90;99.90
55004;DHT22;40900;52.710;6.438;2022-12-19T11:11:48;6.90;99.90
55004;DHT22;40900;52.710;6.438;2022-12-19T11:14:20;6.90;99.90
55004;DHT22;40900;52.710;6.438;2022-12-19T11:16:46;6.90;99.90
55004;DHT22;40900;52.710;6.438;2022-12-19T11:19:35;7.00;99.90
55004;DHT22;40900;52.710;6.438;2022-12-19T11:22:12;7.00;99.90
55004;DHT22;40900;52.710;6.438;2022-12-19T11:24:42;7.00;99.90
55004;DHT22;40900;52.710;6.438;2022-12-19T11:27:37;7.00;99.90
55004;DHT22;40900;52.710;6.438;2022-12-19T11:30:25;7.00;99.90
55004;DHT22;40900;52.710;6.438;2022-12-19T11:33:21;7.00;99.90
55004;DHT22;40900;52.710;6.438;2022-12-19T11:35:52;7.00;99.90
55004;DHT22;40900;52.710;6.438;2022-12-19T11:38:45;7.10;99.90
55004;DHT22;40900;52.710;6.438;2022-12-19T11:41:21;7.00;99.90
55004;DHT22;40900;52.710;6.438;2022-12-19T11:46:56;7.10;99.90
55004;DHT22;40900;52.710;6.438;2022-12-19T11:55:27;7.10;99.90
55004;DHT22;40900;52.710;6.438;2022-12-19T11:57:56;7.10;99.90
55004;DHT22;40900;52.710;6.438;2022-12-19T12:00:23;7.20;99.90
55004;DHT22;40900;52.710;6.438;2022-12-19T12:05:44;7.20;99.90
55004;DHT22;40900;52.710;6.438;2022-12-19T12:08:21;7.20;99.90
55004;DHT22;40900;52.710;6.438;2022-12-19T12:11:24;7.30;99.90
55004;DHT22;40900;52.710;6.438;2022-12-19T12:14:39;7.20;99.90
55004;DHT22;40900;52.710;6.438;2022-12-19T12:17:18;7.30;99.90
55004;DHT22;40900;52.710;6.438;2022-12-19T12:20:11;7.30;99.90
55004;DHT22;40900;52.710;6.438;2022-12-19T12:37:05;7.40;99.90
55004;DHT22;40900;52.710;6.438;2022-12-19T12:44:54;7.40;99.90
55004;DHT22;40900;52.710;6.438;2022-12-19T12:47:24;7.40;99.90
55004;DHT22;40900;52.710;6.438;2022-12-19T12:50:07;7.40;99.90
55004;DHT22;40900;52.710;6.438;2022-12-19T12:55:36;7.50;99.90
55004;DHT22;40900;52.710;6.438;2022-12-19T12:58:05;7.50;99.90
55004;DHT22;40900;52.710;6.438;2022-12-19T13:00:32;7.50;99.90
55004;DHT22;40900;52.710;6.438;2022-12-19T13:03:30;7.40;99.90
55004;DHT22;40900;52.710;6.438;2022-12-19T13:08:55;7.50;99.90
55004;DHT22;40900;52.710;6.438;2022-12-19T13:17:07;7.60;99.90
55004;DHT22;40900;52.710;6.438;2022-12-19T13:19:37;7.60;99.90
55004;DHT22;40900;52.710;6.438;2022-12-19T13:24:57;7.70;99.90
55004;DHT22;40900;52.710;6.438;2022-12-19T13:38:02;7.80;99.90
55004;DHT22;40900;52.710;6.438;2022-12-19T13:40:32;7.70;99.90
55004;DHT22;40900;52.710;6.438;2022-12-19T13:46:00;7.80;99.90
55004;DHT22;40900;52.710;6.438;2022-12-19T13:51:02;7.80;99.90
55004;DHT22;40900;52.710;6.438;2022-12-19T13:53:29;7.90;99.90
55004;DHT22;40900;52.710;6.438;2022-12-19T13:55:59;7.90;99.90
55004;DHT22;40900;52.710;6.438;2022-12-19T13:58:31;7.90;99.90
55004;DHT22;40900;52.710;6.438;2022-12-19T14:01:13;7.90;99.90
55004;DHT22;40900;52.710;6.438;2022-12-19T14:03:42;7.90;99.90
55004;DHT22;40900;52.710;6.438;2022-12-19T14:06:19;7.90;99.90
55004;DHT22;40900;52.710;6.438;2022-12-19T14:08:47;7.90;99.90
55004;DHT22;40900;52.710;6.438;2022-12-19T14:11:18;7.90;99.90
55004;DHT22;40900;52.710;6.438;2022-12-19T14:13:50;7.90;99.90
55004;DHT22;40900;52.710;6.438;2022-12-19T14:16:37;7.90;99.90
55004;DHT22;40900;52.710;6.438;2022-12-19T14:19:03;7.90;99.90
55004;DHT22;40900;52.710;6.438;2022-12-19T14:21:29;7.90;99.90
55004;DHT22;40900;52.710;6.438;2022-12-19T14:24:21;7.90;99.90
55004;DHT22;40900;52.710;6.438;2022-12-19T14:26:51;7.90;99.90
55004;DHT22;40900;52.710;6.438;2022-12-19T14:29:23;7.90;99.90
55004;DHT22;40900;52.710;6.438;2022-12-19T14:31:51;7.80;99.90
55004;DHT22;40900;52.710;6.438;2022-12-19T14:34:29;7.90;99.90
55004;DHT22;40900;52.710;6.438;2022-12-19T14:36:57;7.90;99.90
55004;DHT22;40900;52.710;6.438;2022-12-19T14:39:34;7.90;99.90
55004;DHT22;40900;52.710;6.438;2022-12-19T14:42:10;7.90;99.90
55004;DHT22;40900;52.710;6.438;2022-12-19T14:44:55;7.90;99.90
55004;DHT22;40900;52.710;6.438;2022-12-19T14:47:36;7.90;99.90
55004;DHT22;40900;52.710;6.438;2022-12-19T14:50:35;7.90;99.90
55004;DHT22;40900;52.710;6.438;2022-12-19T14:53:15;7.90;99.90
55004;DHT22;40900;52.710;6.438;2022-12-19T14:55:42;7.90;99.90
55004;DHT22;40900;52.710;6.438;2022-12-19T14:58:31;7.90;99.90
55004;DHT22;40900;52.710;6.438;2022-12-19T15:00:57;7.80;99.90
55004;DHT22;40900;52.710;6.438;2022-12-19T15:03:32;7.90;99.90
55004;DHT22;40900;52.710;6.438;2022-12-19T15:08:31;7.80;99.90
55004;DHT22;40900;52.710;6.438;2022-12-19T15:10:58;7.90;99.90
55004;DHT22;40900;52.710;6.438;2022-12-19T15:13:54;7.80;99.90
55004;DHT22;40900;52.710;6.438;2022-12-19T15:16:29;7.80;99.90
55004;DHT22;40900;52.710;6.438;2022-12-19T15:18:57;7.80;99.90
55004;DHT22;40900;52.710;6.438;2022-12-19T15:21:24;7.80;99.90
55004;DHT22;40900;52.710;6.438;2022-12-19T15:23:50;7.70;99.90
55004;DHT22;40900;52.710;6.438;2022-12-19T15:26:28;7.80;99.90
55004;DHT22;40900;52.710;6.438;2022-12-19T15:28:55;7.70;99.90
55004;DHT22;40900;52.710;6.438;2022-12-19T15:31:34;7.80;99.90
55004;DHT22;40900;52.710;6.438;2022-12-19T15:36:53;7.80;99.90
55004;DHT22;40900;52.710;6.438;2022-12-19T15:39:20;7.80;99.90
55004;DHT22;40900;52.710;6.438;2022-12-19T15:41:47;7.80;99.90
55004;DHT22;40900;52.710;6.438;2022-12-19T15:44:30;7.80;99.90
55004;DHT22;40900;52.710;6.438;2022-12-19T15:46:57;7.80;99.90
55004;DHT22;40900;52.710;6.438;2022-12-19T15:49:23;7.80;99.90
55004;DHT22;40900;52.710;6.438;2022-12-19T15:51:49;7.80;99.90
55004;DHT22;40900;52.710;6.438;2022-12-19T15:54:15;7.80;99.90
55004;DHT22;40900;52.710;6.438;2022-12-19T15:56:44;7.80;99.90
55004;DHT22;40900;52.710;6.438;2022-12-19T15:59:33;7.80;99.90
55004;DHT22;40900;52.710;6.438;2022-12-19T16:02:01;7.80;99.90
55004;DHT22;40900;52.710;6.438;2022-12-19T16:04:27;7.80;99.90
55004;DHT22;40900;52.710;6.438;2022-12-19T16:06:53;7.80;99.90
55004;DHT22;40900;52.710;6.438;2022-12-19T16:09:20;7.80;99.90
55004;DHT22;40900;52.710;6.438;2022-12-19T16:11:47;7.80;99.90
55004;DHT22;40900;52.710;6.438;2022-12-19T16:14:13;7.80;99.90
55004;DHT22;40900;52.710;6.438;2022-12-19T16:16:40;7.80;99.90
55004;DHT22;40900;52.710;6.438;2022-12-19T16:19:28;7.70;99.90
55004;DHT22;40900;52.710;6.438;2022-12-19T16:21:55;7.70;99.90
55004;DHT22;40900;52.710;6.438;2022-12-19T16:24:22;7.70;99.90
55004;DHT22;40900;52.710;6.438;2022-12-19T16:26:55;7.70;99.90
55004;DHT22;40900;52.710;6.438;2022-12-19T16:29:25;7.70;99.90
55004;DHT22;40900;52.710;6.438;2022-12-19T16:31:51;7.70;99.90
55004;DHT22;40900;52.710;6.438;2022-12-19T16:34:18;7.60;99.90
55004;DHT22;40900;52.710;6.438;2022-12-19T16:36:46;7.60;99.90
55004;DHT22;40900;52.710;6.438;2022-12-19T16:39:12;7.60;99.90
55004;DHT22;40900;52.710;6.438;2022-12-19T16:41:38;7.50;99.90
55004;DHT22;40900;52.710;6.438;2022-12-19T16:44:16;7.60;99.90
55004;DHT22;40900;52.710;6.438;2022-12-19T16:47:12;7.60;99.90
55004;DHT22;40900;52.710;6.438;2022-12-19T16:49:38;7.60;99.90
55004;DHT22;40900;52.710;6.438;2022-12-19T16:52:04;7.60;99.90
55004;DHT22;40900;52.710;6.438;2022-12-19T16:54:29;7.60;99.90
55004;DHT22;40900;52.710;6.438;2022-12-19T16:56:55;7.60;99.90
55004;DHT22;40900;52.710;6.438;2022-12-19T16:59:30;7.60;99.90
55004;DHT22;40900;52.710;6.438;2022-12-19T17:01:58;7.60;99.90
55004;DHT22;40900;52.710;6.438;2022-12-19T17:04:26;7.50;99.90
55004;DHT22;40900;52.710;6.438;2022-12-19T17:06:53;7.50;99.90
55004;DHT22;40900;52.710;6.438;2022-12-19T17:09:21;7.50;99.90
55004;DHT22;40900;52.710;6.438;2022-12-19T17:11:54;7.50;99.90
55004;DHT22;40900;52.710;6.438;2022-12-19T17:14:23;7.50;99.90
55004;DHT22;40900;52.710;6.438;2022-12-19T17:16:51;7.50;99.90
55004;DHT22;40900;52.710;6.438;2022-12-19T17:19:22;7.60;99.90
55004;DHT22;40900;52.710;6.438;2022-12-19T17:21:49;7.60;99.90
55004;DHT22;40900;52.710;6.438;2022-12-19T17:24:15;7.50;99.90
55004;DHT22;40900;52.710;6.438;2022-12-19T17:26:45;7.50;99.90
55004;DHT22;40900;52.710;6.438;2022-12-19T17:29:11;7.50;99.90
55004;DHT22;40900;52.710;6.438;2022-12-19T17:31:38;7.60;99.90
55004;DHT22;40900;52.710;6.438;2022-12-19T17:34:25;7.60;99.90
55004;DHT22;40900;52.710;6.438;2022-12-19T17:36:52;7.60;99.90
55004;DHT22;40900;52.710;6.438;2022-12-19T17:39:23;7.60;99.90
55004;DHT22;40900;52.710;6.438;2022-12-19T17:41:50;7.60;99.90
55004;DHT22;40900;52.710;6.438;2022-12-19T17:44:16;7.60;99.90
55004;DHT22;40900;52.710;6.438;2022-12-19T17:46:43;7.60;99.90
55004;DHT22;40900;52.710;6.438;2022-12-19T17:49:19;7.60;99.90
55004;DHT22;40900;52.710;6.438;2022-12-19T17:51:49;7.60;99.90
55004;DHT22;40900;52.710;6.438;2022-12-19T17:54:17;7.60;99.90
55004;DHT22;40900;52.710;6.438;2022-12-19T17:56:43;7.70;99.90
55004;DHT22;40900;52.710;6.438;2022-12-19T17:59:09;7.70;99.90
55004;DHT22;40900;52.710;6.438;2022-12-19T18:01:36;7.70;99.90
55004;DHT22;40900;52.710;6.438;2022-12-19T18:04:09;7.70;99.90
55004;DHT22;40900;52.710;6.438;2022-12-19T18:06:35;7.70;99.90
55004;DHT22;40900;52.710;6.438;2022-12-19T18:09:02;7.70;99.90